createdAt,value
2018-02-09T00:01:10.695Z,87.53
2018-02-09T00:03:38.231Z,81.97
2018-02-09T00:06:05.844Z,89.27
2018-02-09T00:08:33.396Z,95.53
2018-02-09T00:11:00.939Z,91.57
2018-02-09T00:13:28.587Z,98.03
2018-02-09T00:15:56.115Z,89.40
2018-02-09T00:18:23.674Z,75.20
2018-02-09T00:20:51.225Z,79.77
2018-02-09T00:23:18.758Z,83.47
2018-02-09T00:25:46.301Z,91.47
2018-02-09T00:28:13.824Z,78.53
2018-02-09T00:30:41.434Z,89.97
2018-02-09T00:33:08.996Z,100.13
2018-02-09T00:35:36.539Z,77.07
2018-02-09T00:38:04.133Z,81.93
2018-02-09T00:40:31.740Z,88.70
2018-02-09T00:42:59.306Z,82.53
2018-02-09T00:45:26.892Z,101.97
2018-02-09T00:47:54.453Z,85.67
2018-02-09T00:50:22.027Z,79.27
2018-02-09T00:52:49.672Z,90.17
2018-02-09T00:55:17.255Z,91.77
2018-02-09T00:57:44.815Z,79.23
2018-02-09T01:00:12.372Z,87.60
2018-02-09T01:02:39.916Z,92.43
2018-02-09T01:05:07.473Z,90.87
2018-02-09T01:07:34.992Z,80.30
2018-02-09T01:10:02.580Z,88.43
2018-02-09T01:12:30.184Z,97.57
2018-02-09T01:14:57.713Z,90.00
2018-02-09T01:17:25.333Z,83.87
2018-02-09T01:19:52.898Z,91.23
2018-02-09T01:22:20.445Z,81.07
2018-02-09T01:24:48.018Z,94.47
2018-02-09T01:27:15.590Z,82.57
2018-02-09T01:29:43.144Z,78.63
2018-02-09T01:32:10.663Z,83.53
2018-02-09T01:34:38.255Z,86.80
2018-02-09T01:37:05.804Z,95.17
2018-02-09T01:39:34.121Z,85.60
2018-02-09T01:42:01.880Z,100.13
2018-02-09T01:44:29.449Z,85.93
2018-02-09T01:46:57.000Z,90.93
2018-02-09T01:49:24.518Z,82.60
2018-02-09T01:51:52.088Z,86.03
2018-02-09T01:54:19.611Z,89.03
2018-02-09T01:56:47.227Z,87.33
2018-02-09T01:59:14.796Z,88.27
2018-02-09T02:01:42.354Z,89.00
2018-02-09T02:04:09.938Z,86.93
2018-02-09T02:06:37.485Z,91.57
2018-02-09T02:09:05.116Z,101.03
2018-02-09T02:11:33.518Z,89.23
2018-02-09T02:14:01.073Z,95.27
2018-02-09T02:16:28.803Z,97.37
2018-02-09T02:18:56.361Z,81.00
2018-02-09T02:21:23.913Z,94.93
2018-02-09T02:23:51.483Z,98.50
2018-02-09T02:26:19.059Z,90.67
2018-02-09T02:28:46.652Z,99.53
2018-02-09T02:31:14.189Z,98.93
2018-02-09T02:33:41.828Z,99.60
2018-02-09T02:36:09.398Z,108.10
2018-02-09T02:38:36.961Z,104.57
2018-02-09T02:41:04.519Z,96.90
2018-02-09T02:43:32.150Z,110.03
2018-02-09T02:45:59.709Z,100.70
2018-02-09T02:48:27.275Z,95.83
2018-02-09T02:50:54.860Z,114.50
2018-02-09T02:53:22.420Z,111.80
2018-02-09T02:55:50.008Z,98.53
2018-02-09T02:58:17.575Z,96.30
2018-02-09T03:00:45.230Z,98.10
2018-02-09T03:03:12.785Z,91.60
2018-02-09T03:05:40.368Z,84.33
2018-02-09T03:08:07.926Z,92.10
2018-02-09T03:10:35.499Z,91.63
2018-02-09T03:13:03.379Z,89.70
2018-02-09T03:15:30.909Z,92.70
2018-02-09T03:17:58.446Z,111.27
2018-02-09T03:20:26.057Z,97.93
2018-02-09T03:22:53.689Z,95.00
2018-02-09T03:25:21.240Z,95.40
2018-02-09T03:27:49.164Z,101.03
2018-02-09T03:30:16.714Z,90.13
2018-02-09T03:32:44.633Z,98.00
2018-02-09T03:35:12.216Z,90.53
2018-02-09T03:37:39.773Z,94.63
2018-02-09T03:40:07.291Z,108.10
2018-02-09T03:42:34.849Z,100.77
2018-02-09T03:45:02.469Z,110.30
2018-02-09T03:47:30.026Z,97.83
2018-02-09T03:49:57.625Z,107.43
2018-02-09T03:52:25.156Z,96.70
2018-02-09T03:54:52.694Z,88.00
2018-02-09T03:57:20.437Z,106.17
2018-02-09T03:59:48.112Z,111.13
2018-02-09T04:02:15.640Z,114.73
2018-02-09T04:04:43.210Z,110.00
2018-02-09T04:07:10.796Z,110.43
2018-02-09T04:09:38.327Z,100.70
2018-02-09T04:12:05.876Z,98.57
2018-02-09T04:14:33.456Z,104.77
2018-02-09T04:17:01.017Z,101.60
2018-02-09T04:19:28.605Z,91.13
2018-02-09T04:21:56.128Z,107.07
2018-02-09T04:24:23.683Z,113.80
2018-02-09T04:26:51.627Z,97.63
2018-02-09T04:29:19.184Z,104.10
2018-02-09T04:31:46.749Z,107.10
2018-02-09T04:34:14.315Z,125.77
2018-02-09T04:36:41.834Z,109.30
2018-02-09T04:39:09.436Z,106.43
2018-02-09T04:41:36.967Z,98.00
2018-02-09T04:44:04.777Z,99.50
2018-02-09T04:46:32.359Z,103.80
2018-02-09T04:48:59.912Z,99.37
2018-02-09T04:51:27.516Z,104.67
2018-02-09T04:53:55.082Z,96.27
2018-02-09T04:56:22.658Z,110.50
2018-02-09T04:58:50.235Z,114.87
2018-02-09T05:01:17.820Z,131.53
2018-02-09T05:03:45.366Z,103.40
2018-02-09T05:06:13.350Z,93.73
2018-02-09T05:08:40.871Z,93.30
2018-02-09T05:11:08.401Z,96.50
2018-02-09T05:13:36.221Z,96.90
2018-02-09T05:16:03.751Z,108.40
2018-02-09T05:18:31.349Z,103.77
2018-02-09T05:20:58.899Z,106.37
2018-02-09T05:23:26.468Z,104.57
2018-02-09T05:25:54.094Z,97.33
2018-02-09T05:28:21.660Z,114.13
2018-02-09T05:30:49.226Z,109.90
2018-02-09T05:33:16.820Z,104.37
2018-02-09T05:35:44.342Z,100.43
2018-02-09T05:38:11.887Z,84.57
2018-02-09T05:40:39.501Z,95.50
2018-02-09T05:43:07.052Z,99.00
2018-02-09T05:45:34.637Z,103.60
2018-02-09T05:48:02.218Z,98.47
2018-02-09T05:50:29.791Z,105.33
2018-02-09T05:52:57.402Z,89.97
2018-02-09T05:55:25.053Z,98.87
2018-02-09T05:57:52.589Z,91.60
2018-02-09T06:00:20.157Z,99.93
2018-02-09T06:02:47.724Z,102.77
2018-02-09T06:05:15.684Z,107.67
2018-02-09T06:07:43.222Z,107.97
2018-02-09T06:10:10.821Z,93.60
2018-02-09T06:12:38.402Z,95.43
2018-02-09T06:15:05.979Z,90.70
2018-02-09T06:17:33.556Z,86.23
2018-02-09T06:20:01.103Z,103.60
2018-02-09T06:22:28.684Z,99.27
2018-02-09T06:24:56.455Z,94.37
2018-02-09T06:27:24.341Z,91.93
2018-02-09T06:29:51.877Z,102.67
2018-02-09T06:32:19.396Z,84.63
2018-02-09T06:34:46.945Z,87.90
2018-02-09T06:37:14.503Z,87.77
2018-02-09T06:39:42.083Z,96.03
2018-02-09T06:42:09.631Z,101.17
2018-02-09T06:44:37.155Z,88.93
2018-02-09T06:47:04.728Z,92.47
2018-02-09T06:49:32.271Z,99.70
2018-02-09T06:51:59.800Z,88.90
2018-02-09T06:54:27.381Z,102.60
2018-02-09T06:56:54.943Z,93.23
2018-02-09T06:59:22.529Z,110.77
2018-02-09T07:01:50.146Z,108.97
2018-02-09T07:04:17.690Z,87.33
2018-02-09T07:06:45.282Z,85.07
2018-02-09T07:09:12.808Z,89.53
2018-02-09T07:11:40.841Z,93.90
2018-02-09T07:14:08.527Z,99.97
2018-02-09T07:16:36.072Z,96.87
2018-02-09T07:19:04.007Z,80.37
2018-02-09T07:21:31.527Z,76.70
2018-02-09T07:23:59.067Z,83.03
2018-02-09T07:26:26.648Z,86.77
2018-02-09T07:28:54.246Z,81.23
2018-02-09T07:31:21.790Z,88.00
2018-02-09T07:33:49.421Z,75.47
2018-02-09T07:36:16.954Z,79.30
2018-02-09T07:38:44.514Z,77.00
2018-02-09T07:41:12.142Z,82.50
2018-02-09T07:43:39.698Z,72.13
2018-02-09T07:46:07.228Z,76.17
2018-02-09T07:48:34.779Z,73.33
2018-02-09T07:51:02.329Z,65.57
2018-02-09T07:53:29.885Z,80.50
2018-02-09T07:55:57.576Z,77.23
2018-02-09T07:58:25.146Z,61.10
2018-02-09T08:00:52.743Z,73.90
2018-02-09T08:03:20.266Z,70.90
2018-02-09T08:05:47.816Z,69.60
2018-02-09T08:08:15.446Z,62.83
2018-02-09T08:10:42.989Z,66.40
2018-02-09T08:13:10.791Z,57.23
2018-02-09T08:15:38.335Z,63.80
2018-02-09T08:18:06.281Z,58.23
2018-02-09T08:20:33.808Z,63.73
2018-02-09T08:23:01.429Z,64.17
2018-02-09T08:25:28.991Z,69.77
2018-02-09T08:27:56.634Z,58.27
2018-02-09T08:30:24.205Z,58.80
2018-02-09T08:32:51.773Z,59.50
2018-02-09T08:35:19.356Z,68.67
2018-02-09T08:37:46.880Z,55.43
2018-02-09T08:40:14.597Z,56.07
2018-02-09T08:42:42.156Z,56.73
2018-02-09T08:45:09.739Z,54.80
2018-02-09T08:47:37.271Z,54.90
2018-02-09T08:50:04.870Z,51.23
2018-02-09T08:52:32.458Z,53.13
2018-02-09T08:55:00.140Z,52.97
2018-02-09T08:57:27.927Z,56.23
2018-02-09T08:59:55.494Z,51.30
2018-02-09T09:02:23.087Z,54.67
2018-02-09T09:04:50.658Z,44.30
2018-02-09T09:07:18.247Z,52.83
2018-02-09T09:09:45.820Z,49.83
2018-02-09T09:12:13.354Z,50.77
2018-02-09T09:14:41.042Z,46.47
2018-02-09T09:17:08.572Z,49.70
2018-02-09T09:19:36.147Z,57.27
2018-02-09T09:22:03.703Z,48.30
2018-02-09T09:24:31.228Z,53.83
2018-02-09T09:26:58.984Z,54.07
2018-02-09T09:29:26.532Z,46.90
2018-02-09T09:31:54.505Z,47.77
2018-02-09T09:34:22.020Z,49.23
2018-02-09T09:36:49.535Z,52.47
2018-02-09T09:39:17.104Z,52.97
2018-02-09T09:41:46.692Z,48.80
2018-02-09T09:44:14.602Z,44.23
2018-02-09T09:46:42.161Z,54.40
2018-02-09T09:49:09.719Z,45.67
2018-02-09T09:51:37.274Z,50.23
2018-02-09T09:54:04.933Z,41.97
2018-02-09T09:56:32.540Z,43.20
2018-02-09T09:59:00.098Z,52.00
2018-02-09T10:01:31.635Z,45.70
2018-02-09T10:03:59.154Z,46.20
2018-02-09T10:06:26.700Z,45.70
2018-02-09T10:08:54.304Z,47.93
2018-02-09T10:11:21.849Z,42.17
2018-02-09T10:13:49.380Z,47.70
2018-02-09T10:16:17.353Z,43.63
2018-02-09T10:18:44.895Z,44.67
2018-02-09T10:21:12.444Z,47.37
2018-02-09T10:23:40.000Z,56.97
2018-02-09T10:26:08.973Z,48.33
2018-02-09T10:28:36.551Z,49.40
2018-02-09T10:31:04.108Z,47.90
2018-02-09T10:33:32.019Z,51.53
2018-02-09T10:35:59.543Z,48.63
2018-02-09T10:38:27.070Z,43.83
2018-02-09T10:40:54.644Z,47.67
2018-02-09T10:43:22.187Z,41.83
2018-02-09T10:45:49.737Z,47.77
2018-02-09T10:48:17.289Z,40.20
2018-02-09T10:50:44.915Z,45.23
2018-02-09T10:53:12.470Z,41.37
2018-02-09T10:55:40.020Z,47.67
2018-02-09T10:58:07.585Z,39.47
2018-02-09T11:00:40.832Z,39.77
2018-02-09T11:03:08.416Z,41.10
2018-02-09T11:05:35.974Z,42.40
2018-02-09T11:08:03.520Z,46.80
2018-02-09T11:10:33.858Z,44.53
2018-02-09T11:13:07.128Z,44.67
2018-02-09T11:15:34.673Z,41.70
2018-02-09T11:18:02.246Z,42.80
2018-02-09T11:20:29.772Z,55.80
2018-02-09T11:22:57.463Z,49.80
2018-02-09T11:25:25.127Z,43.00
2018-02-09T11:27:52.763Z,37.77
2018-02-09T11:30:20.284Z,42.63
2018-02-09T11:32:47.809Z,40.33
2018-02-09T11:35:15.850Z,39.47
2018-02-09T11:37:46.178Z,37.97
2018-02-09T11:40:13.744Z,41.60
2018-02-09T11:42:41.749Z,43.63
2018-02-09T11:45:09.279Z,41.17
2018-02-09T11:47:36.885Z,40.00
2018-02-09T11:50:04.427Z,43.90
2018-02-09T11:52:31.948Z,43.87
2018-02-09T11:54:59.548Z,42.47
2018-02-09T11:57:27.092Z,43.87
2018-02-09T11:59:54.728Z,41.47
2018-02-09T12:02:22.532Z,46.47
2018-02-09T12:04:50.212Z,39.20
2018-02-09T12:07:17.741Z,44.27
2018-02-09T12:09:45.297Z,44.40
2018-02-09T12:12:12.854Z,44.60
2018-02-09T12:14:40.435Z,42.30
2018-02-09T12:17:07.961Z,47.80
2018-02-09T12:19:35.536Z,47.80
2018-02-09T12:22:03.092Z,53.50
2018-02-09T12:24:30.630Z,44.73
2018-02-09T12:26:58.901Z,57.70
2018-02-09T12:29:26.550Z,47.23
2018-02-09T12:31:54.130Z,52.40
2018-02-09T12:34:21.652Z,54.30
2018-02-09T12:36:49.267Z,56.43
2018-02-09T12:39:16.932Z,53.50
2018-02-09T12:41:44.536Z,47.10
2018-02-09T12:44:12.087Z,49.67
2018-02-09T12:46:39.622Z,53.33
2018-02-09T12:49:07.266Z,51.93
2018-02-09T12:51:34.790Z,53.80
2018-02-09T12:54:02.308Z,54.57
2018-02-09T12:56:29.862Z,56.80
2018-02-09T12:58:57.400Z,44.00
2018-02-09T13:01:25.345Z,55.97
2018-02-09T13:03:52.876Z,54.83
2018-02-09T13:06:21.452Z,53.80
2018-02-09T13:08:49.223Z,53.33
2018-02-09T13:11:17.094Z,50.37
2018-02-09T13:13:44.620Z,54.77
2018-02-09T13:16:12.183Z,57.70
2018-02-09T13:18:48.596Z,54.83
2018-02-09T13:21:16.185Z,62.83
2018-02-09T13:23:55.746Z,52.90
2018-02-09T13:26:23.353Z,56.57
2018-02-09T13:28:59.879Z,52.37
2018-02-09T13:31:27.482Z,50.50
2018-02-09T13:33:55.067Z,59.40
2018-02-09T13:39:29.550Z,50.73
2018-02-09T13:41:57.152Z,57.60
2018-02-09T13:44:24.715Z,57.23
2018-02-09T13:46:52.260Z,46.80
2018-02-09T13:49:19.876Z,89.27
2018-02-09T13:51:47.435Z,76.13
2018-02-09T13:54:15.004Z,70.23
2018-02-09T13:56:42.628Z,69.47
2018-02-09T13:59:10.295Z,66.03
2018-02-09T14:01:37.837Z,79.07
2018-02-09T14:04:05.382Z,64.37
2018-02-09T14:06:32.988Z,79.10
2018-02-09T14:09:00.861Z,85.83
2018-02-09T14:11:28.416Z,60.10
2018-02-09T14:13:56.008Z,87.60
2018-02-09T14:16:23.915Z,71.17
2018-02-09T14:18:51.450Z,67.27
2018-02-09T14:21:19.006Z,67.70
2018-02-09T14:23:46.620Z,79.03
2018-02-09T14:26:14.157Z,77.70
2018-02-09T14:28:41.708Z,82.87
2018-02-09T14:31:09.245Z,65.97
2018-02-09T14:33:36.801Z,63.90
2018-02-09T14:36:04.392Z,67.03
2018-02-09T14:38:31.988Z,72.10
2018-02-09T14:40:59.593Z,72.50
2018-02-09T14:43:27.177Z,71.63
2018-02-09T14:45:54.753Z,66.40
2018-02-09T14:48:22.376Z,72.67
2018-02-09T14:50:49.929Z,68.60
2018-02-09T14:53:17.452Z,77.83
2018-02-09T14:55:45.387Z,78.43
2018-02-09T14:58:13.031Z,75.63
2018-02-09T15:00:40.575Z,73.53
2018-02-09T15:03:08.254Z,400.83
2018-02-09T15:05:35.797Z,83.70
2018-02-09T15:08:03.324Z,136.43
2018-02-09T15:10:30.900Z,87.53
2018-02-09T15:12:58.433Z,134.70
2018-02-09T15:15:26.012Z,159.17
2018-02-09T15:17:53.705Z,76.73
2018-02-09T15:20:21.268Z,74.00
2018-02-09T15:22:48.812Z,67.63
2018-02-09T15:25:16.392Z,80.03
2018-02-09T15:27:43.950Z,77.07
2018-02-09T15:30:11.500Z,89.80
2018-02-09T15:32:39.118Z,85.90
2018-02-09T15:35:07.096Z,77.30
2018-02-09T15:37:34.796Z,90.20
2018-02-09T15:40:02.522Z,83.60
2018-02-09T15:42:30.092Z,88.90
2018-02-09T15:44:57.665Z,92.30
2018-02-09T15:47:25.212Z,102.53
2018-02-09T15:49:52.739Z,98.93
2018-02-09T15:52:20.637Z,120.10
2018-02-09T15:54:48.185Z,91.37
2018-02-09T15:57:15.729Z,97.30
2018-02-09T15:59:43.295Z,106.17
2018-02-09T16:02:10.863Z,84.60
2018-02-09T16:04:38.416Z,93.77
2018-02-09T16:07:05.959Z,93.80
2018-02-09T16:09:33.501Z,90.37
2018-02-09T16:12:01.106Z,84.23
2018-02-09T16:14:28.652Z,91.60
2018-02-09T16:16:56.197Z,98.07
2018-02-09T16:19:23.757Z,103.57
2018-02-09T16:21:51.290Z,94.13
2018-02-09T16:24:18.837Z,109.40
2018-02-09T16:26:46.374Z,106.10
2018-02-09T16:29:14.165Z,106.70
2018-02-09T16:31:41.732Z,111.03
2018-02-09T16:34:10.985Z,106.10
2018-02-09T16:36:38.955Z,101.20
2018-02-09T16:39:06.513Z,106.90
2018-02-09T16:41:34.051Z,108.83
2018-02-09T16:44:01.656Z,109.03
2018-02-09T16:46:29.245Z,95.67
2018-02-09T16:48:56.795Z,109.47
2018-02-09T16:51:24.376Z,97.80
2018-02-09T16:53:51.937Z,116.93
2018-02-09T16:56:19.540Z,110.00
2018-02-09T16:58:47.181Z,122.47
2018-02-09T17:01:14.759Z,106.80
2018-02-09T17:03:43.014Z,117.33
2018-02-09T17:06:10.547Z,118.87
2018-02-09T17:08:38.088Z,128.53
2018-02-09T17:11:05.843Z,107.50
2018-02-09T17:13:33.342Z,118.90
2018-02-09T17:16:00.915Z,107.37
2018-02-09T17:18:28.525Z,96.60
2018-02-09T17:20:56.087Z,112.60
2018-02-09T17:23:23.675Z,124.30
2018-02-09T17:25:51.292Z,118.00
2018-02-09T17:28:19.088Z,117.43
2018-02-09T17:30:47.053Z,123.07
2018-02-09T17:33:15.300Z,125.03
2018-02-09T17:35:42.823Z,132.20
2018-02-09T17:38:10.341Z,117.83
2018-02-09T17:40:38.292Z,116.27
2018-02-09T17:43:06.227Z,118.70
2018-02-09T17:45:33.791Z,133.67
2018-02-09T17:48:01.780Z,134.70
2018-02-09T17:50:29.362Z,125.33
2018-02-09T17:52:57.056Z,121.87
2018-02-09T17:55:24.979Z,117.37
2018-02-09T17:57:52.624Z,132.07
2018-02-09T18:00:20.218Z,117.50
2018-02-09T18:02:47.828Z,127.13
2018-02-09T18:05:15.360Z,115.23
2018-02-09T18:07:42.970Z,126.97
2018-02-09T18:10:10.589Z,131.63
2018-02-09T18:12:38.502Z,123.40
2018-02-09T18:15:06.132Z,114.37
2018-02-09T18:17:33.662Z,119.97
2018-02-09T18:20:01.227Z,118.43
2018-02-09T18:22:28.770Z,126.03
2018-02-09T18:24:56.357Z,115.40
2018-02-09T18:27:23.899Z,114.40
2018-02-09T18:29:51.828Z,122.97
2018-02-09T18:32:19.369Z,122.77
2018-02-09T18:34:46.909Z,115.27
2018-02-09T18:37:14.476Z,329.33
2018-02-09T18:39:42.164Z,265.47
2018-02-09T18:42:09.726Z,269.13
2018-02-09T18:44:37.300Z,183.70
2018-02-09T18:47:04.874Z,441.33
2018-02-09T18:49:32.412Z,226.20
2018-02-09T18:51:59.990Z,297.37
2018-02-09T18:54:27.616Z,267.30
2018-02-09T18:56:55.168Z,147.77
2018-02-09T18:59:22.705Z,153.87
2018-02-09T19:01:50.308Z,157.23
2018-02-09T19:04:17.891Z,146.33
2018-02-09T19:06:45.587Z,205.20
2018-02-09T19:09:13.108Z,130.33
2018-02-09T19:11:40.702Z,142.47
2018-02-09T19:14:08.295Z,129.20
2018-02-09T19:16:35.976Z,140.57
2018-02-09T19:19:03.882Z,132.23
2018-02-09T19:21:31.398Z,127.33
2018-02-09T19:23:58.951Z,124.63
2018-02-09T19:26:26.503Z,122.50
2018-02-09T19:28:54.025Z,120.00
2018-02-09T19:31:21.611Z,133.40
2018-02-09T19:33:49.145Z,119.43
2018-02-09T19:36:16.699Z,143.37
2018-02-09T19:38:44.288Z,141.27
2018-02-09T19:41:11.827Z,133.40
2018-02-09T19:43:39.753Z,122.30
2018-02-09T19:46:07.277Z,123.73
2018-02-09T19:48:34.854Z,124.53
2018-02-09T19:51:02.459Z,120.97
2018-02-09T19:53:30.066Z,116.23
2018-02-09T19:55:57.622Z,126.63
2018-02-09T19:58:25.451Z,101.23
2018-02-09T20:00:53.117Z,110.73
2018-02-09T20:03:20.937Z,112.67
2018-02-09T20:05:48.773Z,108.17
2018-02-09T20:08:16.551Z,111.37
2018-02-09T20:10:44.229Z,104.83
2018-02-09T20:13:11.829Z,114.20
2018-02-09T20:15:39.581Z,96.50
2018-02-09T20:18:07.163Z,98.73
2018-02-09T20:20:34.789Z,106.20
2018-02-09T20:23:01.785Z,96.47
2018-02-09T20:25:29.460Z,94.57
2018-02-09T20:27:57.091Z,100.93
2018-02-09T20:30:24.912Z,102.87
2018-02-09T20:32:52.523Z,95.43
2018-02-09T20:35:20.164Z,95.53
2018-02-09T20:37:47.736Z,89.53
2018-02-09T20:40:15.288Z,100.27
2018-02-09T20:42:42.905Z,98.87
2018-02-09T20:45:10.427Z,96.97
2018-02-09T20:47:37.955Z,92.47
2018-02-09T20:50:05.536Z,90.47
2018-02-09T20:52:33.105Z,86.20
2018-02-09T20:55:00.656Z,89.33
2018-02-09T20:57:28.334Z,89.27
2018-02-09T20:59:55.995Z,91.73
2018-02-09T21:02:24.027Z,80.67
2018-02-09T21:04:51.643Z,86.13
2018-02-09T21:07:19.230Z,90.07
2018-02-09T21:09:46.848Z,102.93
2018-02-09T21:12:14.387Z,101.07
2018-02-09T21:14:42.399Z,111.97
2018-02-09T21:17:09.947Z,91.43
2018-02-09T21:19:37.530Z,89.00
2018-02-09T21:22:05.088Z,86.33
2018-02-09T21:24:32.655Z,93.10
2018-02-09T21:27:00.577Z,86.93
2018-02-09T21:29:28.096Z,85.23
2018-02-09T21:31:55.660Z,95.00
2018-02-09T21:34:23.203Z,80.70
2018-02-09T21:36:50.812Z,102.40
2018-02-09T21:39:18.339Z,94.73
2018-02-09T21:41:46.175Z,89.20
2018-02-09T21:44:13.744Z,100.30
2018-02-09T21:46:41.527Z,88.27
2018-02-09T21:49:09.136Z,71.80
2018-02-09T21:51:36.781Z,80.30
2018-02-09T21:54:04.447Z,81.93
2018-02-09T21:56:31.979Z,74.10
2018-02-09T21:58:59.497Z,74.00
2018-02-09T22:01:27.085Z,86.53
2018-02-09T22:03:54.607Z,76.73
2018-02-09T22:06:22.251Z,82.60
2018-02-09T22:08:49.852Z,76.13
2018-02-09T22:11:17.418Z,76.80
2018-02-09T22:13:44.935Z,92.00
2018-02-09T22:16:12.503Z,76.97
2018-02-09T22:18:40.177Z,80.50
2018-02-09T22:21:07.719Z,77.93
2018-02-09T22:23:35.263Z,87.80
2018-02-09T22:26:02.818Z,88.63
2018-02-09T22:28:30.396Z,86.23
2018-02-09T22:30:57.940Z,99.73
2018-02-09T22:33:25.524Z,90.97
2018-02-09T22:35:53.072Z,99.10
2018-02-09T22:38:20.652Z,100.20
2018-02-09T22:40:48.205Z,92.97
2018-02-09T22:43:15.828Z,102.23
2018-02-09T22:45:43.372Z,104.33
2018-02-09T22:48:10.900Z,101.07
2018-02-09T22:50:38.475Z,96.93
2018-02-09T22:53:06.032Z,105.37
2018-02-09T22:55:33.634Z,133.43
2018-02-09T22:58:01.178Z,102.27
2018-02-09T23:00:28.744Z,107.07
2018-02-09T23:02:56.362Z,111.90
2018-02-09T23:05:23.878Z,111.60
2018-02-09T23:07:51.452Z,137.53
2018-02-09T23:10:19.002Z,128.30
2018-02-09T23:12:46.907Z,190.60
2018-02-09T23:15:14.459Z,113.30
2018-02-09T23:17:42.016Z,209.00
2018-02-09T23:20:09.702Z,111.37
2018-02-09T23:22:37.231Z,125.53
2018-02-09T23:25:04.778Z,227.83
2018-02-09T23:27:32.335Z,126.10
2018-02-09T23:29:59.880Z,147.13
2018-02-09T23:32:27.475Z,125.80
2018-02-09T23:34:55.023Z,110.43
2018-02-09T23:37:22.603Z,180.70
2018-02-09T23:39:50.155Z,172.70
2018-02-09T23:42:17.768Z,181.80
2018-02-09T23:44:45.278Z,140.97
2018-02-09T23:47:12.808Z,182.67
2018-02-09T23:49:40.481Z,172.90
2018-02-09T23:52:08.088Z,223.67
2018-02-09T23:54:35.640Z,211.87
2018-02-09T23:57:03.191Z,179.07
2018-02-09T23:59:30.819Z,163.50
